This is the latest recevied weather packets stored in our database for station/object W1CAT. If no packets are shown the sender has not sent any weather packets the latest 10 day(s).
| Time | Temp. | Humidity | Pressure | Rain* | Wind** | Luminosity | Snow |
|---|---|---|---|---|---|---|---|
| 1788532725 | 15° C | 43% | - | 0 mm | - | - | - |
| 1788532422 | 14.44° C | 46% | - | 0 mm | - | - | - |
| 1788532118 | 13.89° C | 47% | - | 0 mm | - | - | - |
| 1788531813 | 14.44° C | 45% | - | 0 mm | - | - | - |
| 1788531508 | 16.11° C | 42% | - | 0 mm | - | - | - |
| 1788531203 | 15° C | 43% | - | 0 mm | - | - | - |
| 1788530900 | 13.33° C | 47% | - | 0 mm | - | - | - |
| 1788530594 | 12.78° C | 48% | - | 0 mm | - | - | - |
| 1788530293 | 12.78° C | 49% | - | 0 mm | - | - | - |
| 1788529988 | 12.22° C | 50% | - | 0 mm | - | - | - |
| 1788529684 | 11.67° C | 52% | - | 0 mm | - | - | - |
| 1788529383 | 11.11° C | 53% | - | 0 mm | - | - | - |
| 1788529079 | 10.56° C | 56% | - | 0 mm | - | - | - |
| 1788528775 | 8.89° C | 61% | - | 0 mm | - | - | - |
| 1788528474 | 7.78° C | 68% | - | 0 mm | - | - | - |
| 1788528170 | 6.67° C | 68% | - | 0 mm | - | - | - |
| 1788527868 | 6.11° C | 70% | - | 0 mm | - | - | - |
| 1788527565 | 6.67° C | 69% | - | 0 mm | - | - | - |
| 1788527264 | 6.67° C | 68% | - | 0 mm | - | - | - |
| 1788526964 | 6.11° C | 70% | - | 0 mm | - | - | - |
| 1788526660 | 5.56° C | 72% | - | 0 mm | - | - | - |
| 1788526363 | 5.56° C | 72% | - | 0 mm | - | - | - |
| 1788526055 | 5.56° C | 73% | - | 0 mm | - | - | - |
| 1788525751 | 5.56° C | 72% | - | 0 mm | - | - | - |
| 1788525447 | 6.11° C | 71% | - | 0 mm | - | - | - |
* Rain latest hour (hover to see other rain measurements)
** Current wind speed in m/s (hover to see current wind gust speed)